Weather observations for the past three days for
Batesville Panola County
Metric (Imperial)
Date Time (cdt) Wind (kph) Vis. (km) Weather Sky Cond. Temperature (ºC) Relative Humidity Wind Chill (°C) Heat Index (°C) Pressure Precipitation (cm)
Air Dwpt 6 hour altimeter (cm) sea level (mb) 1 hr 3 hr 6 hr
Max. Min.
01 14:35 Calm 16.09 Fair CLR 35 20 41% 38 76.25 0.0
01 14:15 S 7 16.09 Fair CLR 36 21 42% 40 76.25 0.0
01 13:55 Calm 16.09 Fair CLR 37 20 37% 40 76.28 0.0
01 13:35 Vrbl 7 16.09 Fair CLR 36 21 42% 40 76.3 0.0
01 13:15 S 6 16.09 Fair CLR 36 21 42% 40 76.33 0.0
01 12:55 S 6 16.09 A Few Clouds FEW055 35 21 44% 38 76.35 0.0
01 12:35 S 11 16.09 Partly Cloudy SCT055 36 22 44% 41 76.35 0.0
01 12:15 W 6 16.09 A Few Clouds FEW050 34 22 50% 38 76.38 0.0
01 11:55 W 7 16.09 A Few Clouds FEW050 34 22 50% 38 76.4 0.0
01 11:35 Calm 16.09 Fair CLR 34 21 47% 37 76.4 0.0
01 11:15 Calm 16.09 Fair CLR 34 22 50% 38 76.43 0.0
01 10:55 Vrbl 7 16.09 Fair CLR 34 23 53% 39 76.43 0.0
01 10:35 Calm 16.09 Fair CLR 33 23 56% 38 76.45 0.0
01 10:15 Calm 16.09 Fair CLR 32 23 59% 37 76.45 0.0
01 09:55 Calm 16.09 Fair CLR 31 23 62% 35 76.45 0.0
01 09:35 Calm 16.09 Fair CLR 30 23 66% 34 76.45 0.0
01 09:15 Calm 16.09 Fair CLR 30 23 66% 34 76.45 0.0
01 08:55 Calm 16.09 Fair CLR 28 23 74% 31 76.45 0.0
01 08:35 Calm 16.09 Fair CLR 27 23 79% 30 76.43 0.0
01 08:15 Calm 16.09 Fair CLR 26 23 84% 28 76.43 0.0
01 07:55 Calm 16.09 Fair CLR 24 23 94% 23 76.43 0.0
01 07:35 Calm 16.09 Fair CLR 23 22 94% 76.43 0.0
01 07:15 Calm 14.48 Fair CLR 22 22 100% 76.43 0.0
01 06:55 Calm 12.87 Fair CLR 22 21 94% 76.4 0.0
01 06:35 Calm 14.48 Fair CLR 22 21 94% 76.4 0.0
01 06:15 Calm 14.48 Fair CLR 22 21 94% 76.38 0.0
01 05:55 Calm 16.09 Fair CLR 22 21 94% 76.35 0.0
01 05:35 Calm 16.09 Fair CLR 22 21 94% 76.35 0.0
01 05:15 Calm 14.48 Fair CLR 22 21 94% 76.35 0.0
01 04:55 Calm 14.48 Fair CLR 22 22 100% 76.35 0.0
01 04:35 Calm 16.09 Fair CLR 22 22 100% 76.33 0.0
01 04:15 Calm 12.87 Fair CLR 22 22 100% 76.33 0.0
01 03:55 Calm 12.87 Fair CLR 23 22 94% 76.33 0.0
01 03:35 Calm 16.09 Fair CLR 23 22 94% 76.3 0.0
01 03:15 Calm 16.09 Fair CLR 23 22 94% 76.3 0.0
01 02:55 Calm 16.09 Fair CLR 23 22 94% 76.3 0.0
01 02:35 Calm 16.09 Fair CLR 23 22 94% 76.33 0.0
01 02:15 Calm 16.09 Fair CLR 23 22 94% 76.3 0.0
01 01:55 Calm 16.09 Fair CLR 23 22 94% 76.3 0.0
01 01:35 Calm 16.09 A Few Clouds FEW044 24 23 94% 23 76.3 0.0
01 01:15 Calm 16.09 Fair CLR 24 22 89% 24 76.3 0.0
01 00:55 Calm 16.09 Fair CLR 24 23 94% 23 76.3 0.0
01 00:35 Calm 16.09 Fair CLR 24 23 94% 23 76.3 0.0
01 00:15 Calm 16.09 Fair CLR 24 23 94% 23 76.28 0.0
31 23:55 Calm 16.09 Fair CLR 24 23 94% 23 76.28 0.0
31 23:35 Calm 16.09 Fair CLR 24 23 94% 23 76.28 0.0
31 23:15 Calm 16.09 Fair CLR 25 23 89% 26 76.28 0.0
31 22:55 Calm 16.09 Fair CLR 25 23 89% 26 76.28 0.0
31 22:35 Calm 16.09 Fair CLR 25 24 94% 26 76.28 0.0
31 22:15 Calm 16.09 Fair CLR 25 23 89% 26 76.28 0.0
31 21:55 Calm 16.09 Fair CLR 26 24 89% 28 76.28 0.0
31 21:35 Calm 16.09 Fair CLR 26 24 89% 28 76.28 0.0
31 21:15 Calm 16.09 Fair CLR 26 24 89% 28 76.25 0.0
31 20:55 Calm 16.09 Fair CLR 27 24 84% 30 76.25 0.0
31 20:35 Calm 16.09 Fair CLR 27 23 79% 30 76.23 0.0
31 20:15 Calm 16.09 Fair CLR 28 23 74% 31 76.23 0.0
31 19:55 Calm 16.09 Fair CLR 29 23 70% 33 76.2 0.0
31 19:35 Calm 16.09 Fair CLR 30 23 66% 34 76.2 0.0
31 19:15 Calm 16.09 Fair CLR 33 23 56% 38 76.2 0.0
31 18:35 Calm 16.09 Fair CLR 35 21 44% 38 76.2 0.0
31 18:15 Calm 16.09 Fair CLR 35 21 44% 38 76.2 0.0
31 17:55 Calm 16.09 Fair CLR 35 22 47% 39 76.2 0.0
31 17:35 Calm 16.09 A Few Clouds FEW080 35 22 47% 39 76.2 0.0
31 17:15 Calm 16.09 Partly Cloudy SCT080 SCT120 35 21 44% 38 76.23 0.0
31 16:55 Calm 16.09 Mostly Cloudy FEW070 BKN080 37 21 39% 41 76.23 0.0
31 16:35 Calm 16.09 Mostly Cloudy BKN065 BKN080 38 21 37% 42 76.23 0.0
31 16:15 Vrbl 7 16.09 Mostly Cloudy BKN065 BKN080 37 20 37% 40 76.23 0.0
31 15:55 Calm 16.09 Partly Cloudy SCT065 36 19 37% 38 76.25 0.0
31 15:35 NW 7 16.09 Partly Cloudy SCT060 36 21 42% 40 76.25 0.0
31 15:15 Vrbl 6 16.09 Partly Cloudy SCT060 36 20 39% 39 76.28 0.0
31 14:55 Calm 16.09 A Few Clouds FEW060 36 21 42% 40 76.28 0.0
31 14:35 Calm 16.09 Mostly Cloudy BKN060 36 21 42% 40 76.3 0.0
31 14:15 Calm 16.09 Partly Cloudy SCT055 SCT065 SCT075 36 21 42% 40 76.3 0.0
31 13:55 Calm 16.09 Partly Cloudy FEW055 SCT065 SCT075 35 21 44% 38 76.33 0.0
31 13:35 Vrbl 7 16.09 A Few Clouds FEW055 35 22 47% 39 76.35 0.0
31 13:15 NW 9 16.09 Partly Cloudy SCT050 34 22 50% 38 76.38 0.0
31 12:55 NW 7 16.09 Mostly Cloudy BKN050 BKN060 34 22 50% 38 76.4 0.0
31 12:35 Calm 16.09 Partly Cloudy SCT050 SCT060 33 21 49% 36 76.43 0.0
31 12:15 Vrbl 6 16.09 Mostly Cloudy BKN047 BKN055 34 22 50% 38 76.43 0.0
31 11:55 Vrbl 6 16.09 Mostly Cloudy BKN046 BKN060 34 21 47% 37 76.45 0.0
31 11:35 NW 6 16.09 Mostly Cloudy SCT042 BKN060 33 22 52% 37 76.48 0.0
31 11:15 Calm 16.09 Fair CLR 33 22 52% 37 76.45 0.0
31 10:55 NW 7 16.09 Fair CLR 32 23 59% 37 76.48 0.0
31 10:35 Vrbl 7 16.09 Fair CLR 32 23 59% 37 76.48 0.0
31 10:15 NW 9 16.09 Fair CLR 31 23 62% 35 76.48 0.0
31 09:55 Calm 16.09 Fair CLR 30 23 66% 34 76.48 0.0
31 09:35 Calm 16.09 Fair CLR 30 23 66% 34 76.45 0.0
31 09:15 Calm 16.09 Fair CLR 29 23 70% 33 76.45 0.0
31 08:55 Calm 16.09 Fair CLR 27 23 79% 30 76.45 0.0
31 08:35 Calm 16.09 Fair CLR 26 23 84% 28 76.45 0.0
31 08:15 Calm 16.09 Fair CLR 25 22 83% 26 76.43 0.0
31 07:55 Calm 16.09 Fair CLR 23 22 94% 76.43 0.0
31 07:35 Calm 16.09 Fair CLR 22 21 94% 76.43 0.0
31 07:15 Calm 16.09 Fair CLR 21 20 94% 76.4 0.0
31 06:55 Calm 12.87 Fair CLR 21 20 94% 76.38 0.0
31 06:35 Calm 11.27 Fair CLR 21 20 94% 76.38 0.0
31 06:15 Calm 14.48 Fair CLR 21 20 94% 76.35 0.0
31 05:55 Calm 9.66 Fog/Mist CLR 21 20 94% 76.35 0.0
31 05:35 Calm 12.87 Fair CLR 21 20 94% 76.33 0.0
31 05:15 Calm 11.27 Fair CLR 21 20 94% 76.33 0.0
31 04:55 Calm 14.48 Fair CLR 21 20 94% 76.3 0.0
31 04:35 Calm 14.48 Fair CLR 21 20 94% 76.3 0.0
31 04:15 Calm 16.09 Fair CLR 21 20 94% 76.3 0.0
31 03:55 Calm 14.48 Fair CLR 21 21 100% 76.28 0.0
31 03:35 Calm 16.09 Fair CLR 22 21 94% 76.28 0.0
31 03:15 Calm 16.09 Fair CLR 22 21 94% 76.28 0.0
31 02:55 Calm 16.09 Fair CLR 22 21 94% 76.28 0.0
31 02:35 Calm 14.48 Fair CLR 22 21 94% 76.28 0.0
31 02:15 Calm 16.09 Fair CLR 22 21 94% 76.28 0.0
31 01:55 Calm 16.09 Fair CLR 22 21 94% 76.3 0.0
31 01:35 Calm 16.09 Fair CLR 22 21 94% 76.3 0.0
31 01:15 Calm 16.09 Fair CLR 22 21 94% 76.3 0.0
31 00:55 Calm 16.09 Fair CLR 23 22 94% 76.33 0.0
31 00:35 Calm 16.09 Fair CLR 23 22 94% 76.3 0.0
31 00:15 Calm 16.09 Fair CLR 23 22 94% 76.3 0.0
30 23:55 Calm 16.09 Fair CLR 23 22 94% 76.3 0.0
30 23:35 Calm 16.09 Fair CLR 23 22 94% 76.3 0.0
30 23:15 Calm 16.09 Fair CLR 24 22 89% 24 76.3 0.0
30 22:55 Calm 16.09 Fair CLR 24 22 89% 24 76.3 0.0
30 22:35 Calm 16.09 Fair CLR 24 22 89% 24 76.3 0.0
30 22:15 Calm 16.09 Fair CLR 24 22 89% 24 76.28 0.0
30 21:55 Calm 16.09 Fair CLR 25 22 83% 26 76.28 0.0
30 21:35 Calm 16.09 Fair CLR 25 22 83% 26 76.28 0.0
30 21:15 Calm 16.09 Fair CLR 26 22 79% 28 76.25 0.0
30 20:55 Calm 16.09 Fair CLR 27 22 74% 29 76.23 0.0
30 20:35 Calm 16.09 Fair CLR 29 21 62% 31 76.23 0.0
30 20:15 SE 6 16.09 Fair CLR 30 20 55% 32 76.2 0.0
30 19:55 SE 7 16.09 Fair CLR 30 20 55% 32 76.2 0.0
30 19:35 S 7 16.09 Fair CLR 31 20 52% 33 76.17 0.0
30 19:15 S 13 16.09 Fair CLR 33 20 46% 35 76.17 0.0
30 18:55 Vrbl 7 16.09 Fair CLR 33 20 46% 35 76.17 0.0
30 18:35 SE 9 16.09 Fair CLR 34 20 44% 36 76.17 0.0
30 18:15 Vrbl 9 G 19 16.09 Fair CLR 34 21 47% 37 76.17 0.0
30 17:55 S 11 16.09 Fair CLR 35 20 41% 38 76.17 0.0
30 17:35 S 13 16.09 Fair CLR 35 20 41% 38 76.15 0.0
30 17:15 Vrbl 11 16.09 Fair CLR 35 20 41% 38 76.15 0.0
30 16:55 SE 15 G 24 16.09 Fair CLR 36 20 39% 39 76.17 0.0
30 16:35 S 7 G 20 16.09 Fair CLR 35 20 41% 38 76.17 0.0
30 16:15 Vrbl 7 16.09 Fair CLR 35 20 41% 38 76.2 0.0
30 15:55 S 15 16.09 Fair CLR 35 21 44% 38 76.2 0.0
30 15:35 SE 11 16.09 Fair CLR 36 21 42% 40 76.23 0.0
30 15:15 Vrbl 6 16.09 Fair CLR 35 20 41% 38 76.23 0.0
30 14:55 SW 9 G 22 16.09 A Few Clouds FEW055 FEW070 35 20 41% 38 76.25 0.0
30 14:35 Calm 16.09 Partly Cloudy FEW060 SCT070 35 20 41% 38 76.28 0.0
30 14:15 Calm 16.09 A Few Clouds FEW065 35 21 44% 38 76.28 0.0
30 13:55 S 15 16.09 Fair CLR 35 21 44% 38 76.3 0.0
30 13:35 Vrbl 11 16.09 Fair CLR 34 21 47% 37 76.33 0.0
30 13:15 Vrbl 9 16.09 Fair CLR 34 22 50% 38 76.33 0.0
30 12:55 S 17 16.09 Fair CLR 34 21 47% 37 76.35 0.0
30 12:35 S 11 G 22 16.09 A Few Clouds FEW043 FEW065 33 22 52% 37 76.38 0.0
30 12:15 S 15 16.09 Fair CLR 34 22 50% 38 76.38 0.0
30 11:55 S 13 16.09 Fair CLR 32 22 55% 36 76.4 0.0
30 11:35 Vrbl 9 16.09 Fair CLR 33 23 56% 38 76.4 0.0
30 11:15 S 11 16.09 Fair CLR 32 23 59% 37 76.4 0.0
30 10:55 SE 9 16.09 Fair CLR 32 22 55% 36 76.43 0.0
30 10:35 SW 6 16.09 Fair CLR 31 22 59% 35 76.43 0.0
30 10:15 S 7 16.09 Fair CLR 30 22 62% 33 76.43 0.0
30 09:55 S 7 16.09 Fair CLR 30 22 62% 33 76.43 0.0
30 09:35 S 6 16.09 Fair CLR 29 21 62% 31 76.45 0.0
30 09:15 S 11 16.09 Fair CLR 28 22 70% 31 76.45 0.0
30 08:55 SW 9 16.09 Fair CLR 27 22 74% 29 76.45 0.0
30 08:35 Calm 16.09 Fair CLR 25 21 79% 26 76.45 0.0
30 08:15 Calm 16.09 Fair CLR 23 20 83% 76.43 0.0
30 07:55 Calm 16.09 Fair CLR 22 20 88% 76.43 0.0
30 07:35 Calm 16.09 Fair CLR 20 19 94% 76.4 0.0
30 07:15 Calm 16.09 Fair CLR 19 19 100% 76.4 0.0
30 06:55 Calm 12.87 Fair CLR 19 18 94% 76.38 0.0
30 06:35 Calm 16.09 Fair CLR 19 18 94% 76.38 0.0
30 06:15 Calm 16.09 Fair CLR 19 18 94% 76.35 0.0
30 05:55 Calm 14.48 Fair CLR 19 18 94% 76.33 0.0
30 05:35 Calm 16.09 Fair CLR 19 18 94% 76.3 0.0
30 05:15 Calm 16.09 A Few Clouds FEW050 19 18 94% 76.3 0.0
30 04:55 Calm 16.09 A Few Clouds FEW050 FEW060 FEW095 19 18 94% 76.3 0.0
30 04:35 Calm 16.09 A Few Clouds FEW060 19 18 94% 76.3 0.0
30 04:15 Calm 16.09 A Few Clouds FEW060 19 18 94% 76.33 0.0
30 03:55 Calm 16.09 Fair CLR 19 18 94% 76.33 0.0
30 03:35 Calm 16.09 A Few Clouds FEW050 FEW060 19 18 94% 76.3 0.0
30 03:15 Calm 16.09 A Few Clouds FEW050 FEW060 FEW075 19 18 94% 76.3 0.0
30 02:55 Calm 16.09 A Few Clouds FEW055 FEW070 19 18 94% 76.3 0.0
30 02:35 Calm 16.09 A Few Clouds FEW050 FEW060 19 18 94% 76.33 0.0
30 02:15 Calm 16.09 Partly Cloudy SCT050 19 18 94% 76.33 0.0
30 01:55 Calm 16.09 A Few Clouds FEW050 19 18 94% 76.33 0.0
30 01:35 Calm 16.09 A Few Clouds FEW050 FEW055 19 18 94% 76.33 0.0
30 01:15 Calm 16.09 A Few Clouds FEW055 19 18 94% 76.33 0.0
30 01:00 Calm 16.09 A Few Clouds FEW050 FEW055 19 18 94% 76.35 0.0
30 00:35 Calm 16.09 A Few Clouds FEW050 FEW055 19 18 94% 76.33 0.0
30 00:15 Calm 16.09 Fair CLR 20 18 88% 76.33 0.0
29 23:55 Calm 16.09 Fair CLR 20 19 94% 76.33 0.0
29 23:35 Calm 16.09 Fair CLR 20 19 94% 76.33 0.0
29 23:15 Calm 16.09 Fair CLR 20 19 94% 76.33 0.0
29 22:55 Calm 16.09 Fair CLR 21 19 88% 76.33 0.0
29 22:35 Calm 16.09 Fair CLR 21 19 88% 76.3 0.0
29 22:15 Calm 16.09 Fair CLR 21 19 88% 76.3 0.0
29 21:55 Calm 16.09 Fair CLR 22 20 88% 76.3 0.0
29 21:35 Calm 16.09 Fair CLR 22 20 88% 76.3 0.0
29 21:15 Calm 16.09 Fair CLR 23 20 83% 76.28 0.0
29 20:55 Calm 16.09 Fair CLR 23 19 78% 76.28 0.0
29 20:35 Calm 16.09 Fair CLR 24 20 78% 24 76.25 0.0
29 20:15 Calm 16.09 Fair CLR 25 20 74% 26 76.25 0.0
29 19:55 Calm 16.09 Fair CLR 26 19 65% 27 76.23 0.0
29 19:35 Calm 16.09 Fair CLR 27 20 66% 29 76.23 0.0
29 19:15 Calm 16.09 Fair CLR 28 19 58% 29 76.23 0.0
29 18:55 Calm 16.09 Fair CLR 31 20 52% 33 76.23 0.0
29 18:35 Calm 16.09 Fair CLR 33 16 36% 33 76.23 0.0
29 18:15 W 7 16.09 Fair CLR 33 14 32% 32 76.23 0.0
29 17:55 Calm 16.09 Fair CLR 33 14 32% 32 76.2 0.0
29 17:35 Calm 16.09 Fair CLR 33 14 32% 32 76.23 0.0
29 17:15 Calm 16.09 Fair CLR 34 15 32% 34 76.23 0.0
29 16:55 Calm 16.09 Fair CLR 34 14 30% 33 76.23 0.0
29 16:35 Calm 16.09 Fair CLR 34 14 30% 33 76.25 0.0
29 16:15 Calm 16.09 Fair CLR 34 15 32% 34 76.25 0.0
29 15:55 Calm 16.09 Fair CLR 34 14 30% 33 76.25 0.0
29 15:35 S 6 16.09 Fair CLR 34 13 28% 33 76.28 0.0
29 15:15 Calm 16.09 Fair CLR 34 14 30% 33 76.3 0.0
29 14:55 SE 9 16.09 Fair CLR 33 13 30% 32 76.3 0.0
Date Time (cdt) Wind (kph) Vis. (km) Weather Sky Cond. Air Dwpt Max. Min. Relative Humidity Wind Chill (°C) Heat Index (°C) altimeter (cm) sea level (mb) 1 hr 3 hr 6 hr
6 hour
Temperature (ºC) Pressure Precipitation (cm)